createdAt,value
2023-02-11T00:00:21.904Z,103571.63
2023-02-11T00:02:48.462Z,103577.88
2023-02-11T00:05:15.577Z,103582.31
2023-02-11T00:07:42.212Z,103566.47
2023-02-11T00:10:09.114Z,103559.38
2023-02-11T00:12:36.316Z,103565.50
2023-02-11T00:15:03.282Z,103569.97
2023-02-11T00:17:29.945Z,103569.09
2023-02-11T00:19:56.584Z,103566.38
2023-02-11T00:22:23.555Z,103568.22
2023-02-11T00:24:50.163Z,103559.38
2023-02-11T00:27:16.707Z,103568.22
2023-02-11T00:29:43.308Z,103569.94
2023-02-11T00:32:10.711Z,103569.94
2023-02-11T00:34:38.277Z,103564.59
2023-02-11T00:37:05.453Z,103570.75
2023-02-11T00:39:32.262Z,103565.41
2023-02-11T00:41:59.284Z,103571.63
2023-02-11T00:44:25.883Z,103567.28
2023-02-11T00:46:52.437Z,103574.34
2023-02-11T00:49:19.178Z,103576.94
2023-02-11T00:51:45.747Z,103575.13
2023-02-11T00:54:12.377Z,103574.25
2023-02-11T00:56:38.960Z,103571.59
2023-02-11T00:59:05.496Z,103568.94
2023-02-11T01:01:32.100Z,103558.31
2023-02-11T01:03:58.774Z,103560.97
2023-02-11T01:06:25.381Z,103551.22
2023-02-11T01:08:52.069Z,103548.59
2023-02-11T01:11:20.854Z,103539.69
2023-02-11T01:13:49.285Z,103537.91
2023-02-11T01:16:17.261Z,103548.41
2023-02-11T01:18:44.366Z,103552.75
2023-02-11T01:21:11.662Z,103538.63
2023-02-11T01:23:38.382Z,103523.56
2023-02-11T01:26:05.905Z,103514.69
2023-02-11T01:28:33.290Z,103520.78
2023-02-11T01:31:01.073Z,103525.94
2023-02-11T01:33:27.672Z,103528.59
2023-02-11T01:35:54.449Z,103543.50
2023-02-11T01:38:26.297Z,103548.78
2023-02-11T01:41:03.687Z,103556.69
2023-02-11T01:43:41.286Z,103564.63
2023-02-11T01:46:26.372Z,103560.22
2023-02-11T01:49:09.657Z,103554.94
2023-02-11T01:51:49.630Z,103549.66
2023-02-11T01:54:42.841Z,103552.34
2023-02-11T01:57:24.619Z,103546.16
2023-02-11T02:00:11.525Z,103557.59
2023-02-11T02:03:08.157Z,103563.69
2023-02-11T02:06:22.325Z,103568.97
2023-02-11T02:09:01.730Z,103565.34
2023-02-11T02:11:28.324Z,103564.47
2023-02-11T02:13:55.047Z,103560.94
2023-02-11T02:16:29.378Z,103558.28
2023-02-11T02:19:24.687Z,103551.19
2023-02-11T02:22:33.231Z,103543.25
2023-02-11T02:25:22.735Z,103547.63
2023-02-11T02:28:18.024Z,103552.06
2023-02-11T02:30:59.167Z,103544.88
2023-02-11T02:33:41.291Z,103545.63
2023-02-11T02:36:21.176Z,103550.81
2023-02-11T02:39:05.688Z,103541.00
2023-02-11T02:41:35.899Z,103529.47
2023-02-11T02:44:02.595Z,103531.28
2023-02-11T02:46:32.314Z,103528.63
2023-02-11T02:49:00.037Z,103525.88
2023-02-11T02:52:01.965Z,103534.66
2023-02-11T02:55:07.195Z,103532.88
2023-02-11T02:57:45.724Z,103535.59
2023-02-11T03:00:29.704Z,103540.94
2023-02-11T03:03:34.776Z,103536.56
2023-02-11T03:06:25.126Z,103535.66
2023-02-11T03:09:00.837Z,103521.56
2023-02-11T03:11:29.170Z,103526.81
2023-02-11T03:13:58.164Z,103526.81
2023-02-11T03:16:28.966Z,103515.34
2023-02-11T03:19:19.778Z,103505.69
2023-02-11T03:21:47.259Z,103500.38
2023-02-11T03:24:25.926Z,103500.34
2023-02-11T03:27:01.537Z,103495.84
2023-02-11T03:29:39.061Z,103494.97
2023-02-11T03:32:25.332Z,103494.97
2023-02-11T03:35:14.469Z,103494.03
2023-02-11T03:37:51.405Z,103497.50
2023-02-11T03:40:29.600Z,103505.44
2023-02-11T03:43:08.675Z,103493.16
2023-02-11T03:45:38.440Z,103482.56
2023-02-11T03:48:25.826Z,103482.50
2023-02-11T03:50:56.111Z,103466.50
2023-02-11T03:53:23.007Z,103475.38
2023-02-11T03:55:53.995Z,103478.81
2023-02-11T03:58:20.849Z,103487.50
2023-02-11T04:00:47.445Z,103497.13
2023-02-11T04:03:14.474Z,103499.75
2023-02-11T04:05:41.113Z,103508.53
2023-02-11T04:08:08.285Z,103499.66
2023-02-11T04:10:35.088Z,103503.16
2023-02-11T04:13:01.736Z,103504.09
2023-02-11T04:15:28.273Z,103503.31
2023-02-11T04:17:54.871Z,103503.34
2023-02-11T04:20:21.438Z,103502.56
2023-02-11T04:22:48.254Z,103505.19
2023-02-11T04:25:14.842Z,103507.03
2023-02-11T04:27:41.368Z,103508.88
2023-02-11T04:30:08.747Z,103518.59
2023-02-11T04:32:35.332Z,103513.31
2023-02-11T04:35:02.827Z,103514.22
2023-02-11T04:37:29.473Z,103516.13
2023-02-11T04:39:55.986Z,103523.19
2023-02-11T04:42:22.543Z,103524.09
2023-02-11T04:44:49.102Z,103517.16
2023-02-11T04:47:15.823Z,103509.22
2023-02-11T04:49:42.452Z,103519.91
2023-02-11T04:52:09.065Z,103513.72
2023-02-11T04:54:35.612Z,103519.09
2023-02-11T04:57:02.610Z,103517.34
2023-02-11T04:59:29.563Z,103515.69
2023-02-11T05:01:56.155Z,103516.50
2023-02-11T05:04:23.901Z,103515.69
2023-02-11T05:06:50.600Z,103508.63
2023-02-11T05:09:17.758Z,103510.41
2023-02-11T05:11:44.490Z,103521.94
2023-02-11T05:14:11.041Z,103519.25
2023-02-11T05:16:37.661Z,103510.44
2023-02-11T05:19:04.633Z,103518.44
2023-02-11T05:21:31.314Z,103511.34
2023-02-11T05:23:58.254Z,103515.84
2023-02-11T05:26:25.646Z,103507.03
2023-02-11T05:28:52.277Z,103524.72
2023-02-11T05:31:18.935Z,103520.31
2023-02-11T05:33:45.764Z,103513.31
2023-02-11T05:36:13.686Z,103508.88
2023-02-11T05:38:42.408Z,103513.31
2023-02-11T05:41:09.661Z,103514.22
2023-02-11T05:43:36.639Z,103502.84
2023-02-11T05:46:04.405Z,103511.69
2023-02-11T05:48:31.540Z,103506.44
2023-02-11T05:50:58.655Z,103508.19
2023-02-11T05:53:25.322Z,103503.81
2023-02-11T05:55:52.216Z,103511.75
2023-02-11T05:58:19.058Z,103519.75
2023-02-11T06:00:45.644Z,103515.34
2023-02-11T06:03:12.430Z,103516.25
2023-02-11T06:05:39.079Z,103514.50
2023-02-11T06:08:05.695Z,103518.03
2023-02-11T06:10:32.209Z,103527.78
2023-02-11T06:12:58.807Z,103527.78
2023-02-11T06:15:25.349Z,103531.31
2023-02-11T06:17:52.342Z,103530.47
2023-02-11T06:20:19.405Z,103528.75
2023-02-11T06:22:46.682Z,103527.88
2023-02-11T06:25:13.534Z,103529.75
2023-02-11T06:27:40.114Z,103524.41
2023-02-11T06:30:09.968Z,103533.28
2023-02-11T06:32:44.680Z,103526.19
2023-02-11T06:35:12.647Z,103527.09
2023-02-11T06:37:40.488Z,103520.97
2023-02-11T06:40:07.860Z,103521.06
2023-02-11T06:42:36.157Z,103523.69
2023-02-11T06:45:05.937Z,103514.00
2023-02-11T06:47:32.572Z,103515.00
2023-02-11T06:49:59.145Z,103514.09
2023-02-11T06:52:25.750Z,103517.69
2023-02-11T06:54:52.290Z,103518.59
2023-02-11T06:57:18.886Z,103520.34
2023-02-11T06:59:45.523Z,103523.06
2023-02-11T07:02:12.317Z,103521.31
2023-02-11T07:04:41.958Z,103531.09
2023-02-11T07:07:08.505Z,103535.50
2023-02-11T07:09:35.116Z,103534.69
2023-02-11T07:12:01.683Z,103541.75
2023-02-11T07:14:28.259Z,103540.00
2023-02-11T07:16:54.888Z,103540.91
2023-02-11T07:19:21.502Z,103544.50
2023-02-11T07:21:48.814Z,103535.66
2023-02-11T07:24:15.669Z,103548.09
2023-02-11T07:26:42.462Z,103552.53
2023-02-11T07:29:09.158Z,103554.38
2023-02-11T07:31:35.874Z,103556.16
2023-02-11T07:34:02.700Z,103563.28
2023-02-11T07:36:31.813Z,103570.38
2023-02-11T07:38:58.827Z,103557.19
2023-02-11T07:41:26.343Z,103561.66
2023-02-11T07:43:53.747Z,103574.06
2023-02-11T07:46:23.753Z,103574.06
2023-02-11T07:48:51.592Z,103580.38
2023-02-11T07:51:22.162Z,103570.63
2023-02-11T07:53:48.968Z,103571.63
2023-02-11T07:56:17.770Z,103568.16
2023-02-11T07:58:44.730Z,103567.31
2023-02-11T08:01:15.146Z,103573.53
2023-02-11T08:03:42.754Z,103570.03
2023-02-11T08:06:15.306Z,103563.88
2023-02-11T08:08:42.772Z,103571.06
2023-02-11T08:11:12.695Z,103571.09
2023-02-11T08:13:39.606Z,103568.50
2023-02-11T08:16:07.647Z,103572.09
2023-02-11T08:18:35.265Z,103573.88
2023-02-11T08:21:09.872Z,103574.84
2023-02-11T08:23:38.198Z,103574.91
2023-02-11T08:26:08.191Z,103574.91
2023-02-11T08:28:40.160Z,103572.25
2023-02-11T08:31:08.627Z,103573.19
2023-02-11T08:33:35.321Z,103576.69
2023-02-11T08:36:08.886Z,103576.69
2023-02-11T08:38:35.543Z,103584.69
2023-02-11T08:41:02.093Z,103587.41
2023-02-11T08:43:28.962Z,103589.13
2023-02-11T08:45:55.597Z,103598.03
2023-02-11T08:48:22.216Z,103590.09
2023-02-11T08:50:48.788Z,103584.84
2023-02-11T08:53:15.327Z,103595.47
2023-02-11T08:55:48.979Z,103593.81
2023-02-11T08:58:18.101Z,103600.94
2023-02-11T09:00:46.270Z,103603.66
2023-02-11T09:03:15.312Z,103596.63
2023-02-11T09:05:47.100Z,103607.34
2023-02-11T09:08:14.629Z,103607.41
2023-02-11T09:10:41.186Z,103613.69
2023-02-11T09:13:08.566Z,103617.31
2023-02-11T09:15:35.622Z,103619.16
2023-02-11T09:18:03.477Z,103624.66
2023-02-11T09:20:30.555Z,103617.66
2023-02-11T09:22:59.222Z,103621.25
2023-02-11T09:25:26.279Z,103620.47
2023-02-11T09:27:53.780Z,103623.19
2023-02-11T09:30:21.396Z,103628.66
2023-02-11T09:32:48.024Z,103631.34
2023-02-11T09:35:14.611Z,103629.66
2023-02-11T09:37:41.117Z,103635.97
2023-02-11T09:40:08.391Z,103629.75
2023-02-11T09:42:50.840Z,103636.06
2023-02-11T09:45:22.203Z,103645.00
2023-02-11T09:48:05.126Z,103637.97
2023-02-11T09:50:38.202Z,103635.47
2023-02-11T09:53:17.926Z,103632.03
2023-02-11T09:55:48.337Z,103640.09
2023-02-11T09:58:21.708Z,103632.22
2023-02-11T10:01:23.681Z,103648.31
2023-02-11T10:04:05.270Z,103647.53
2023-02-11T10:06:43.650Z,103653.84
2023-02-11T10:09:37.832Z,103655.78
2023-02-11T10:12:45.657Z,103654.97
2023-02-11T10:15:32.019Z,103661.38
2023-02-11T10:18:32.248Z,103667.69
2023-02-11T10:21:37.989Z,103674.09
2023-02-11T10:24:12.202Z,103678.72
2023-02-11T10:26:40.862Z,103669.25
2023-02-11T10:29:19.024Z,103675.84
2023-02-11T10:31:47.769Z,103683.13
2023-02-11T10:34:15.259Z,103675.34
2023-02-11T10:36:44.406Z,103677.34
2023-02-11T10:39:24.165Z,103675.56
2023-02-11T10:41:57.053Z,103688.97
2023-02-11T10:44:33.965Z,103690.81
2023-02-11T10:47:09.264Z,103689.91
2023-02-11T10:49:42.052Z,103694.34
2023-02-11T10:52:17.818Z,103686.31
2023-02-11T10:55:05.596Z,103692.53
2023-02-11T10:57:49.776Z,103688.03
2023-02-11T11:00:39.094Z,103689.78
2023-02-11T11:03:20.250Z,103693.38
2023-02-11T11:05:59.827Z,103687.19
2023-02-11T11:08:48.209Z,103698.81
2023-02-11T11:11:24.259Z,103699.84
2023-02-11T11:13:53.536Z,103701.84
2023-02-11T11:16:24.564Z,103703.84
2023-02-11T11:19:13.597Z,103706.69
2023-02-11T11:21:47.753Z,103710.41
2023-02-11T11:24:19.669Z,103705.13
2023-02-11T11:26:54.069Z,103716.72
2023-02-11T11:29:57.976Z,103708.75
2023-02-11T11:32:29.958Z,103721.22
2023-02-11T11:35:02.609Z,103716.88
2023-02-11T11:37:38.785Z,103716.06
2023-02-11T11:40:10.228Z,103724.22
2023-02-11T11:42:39.136Z,103719.00
2023-02-11T11:45:22.889Z,103719.88
2023-02-11T11:47:52.295Z,103718.94
2023-02-11T11:50:35.017Z,103713.50
2023-02-11T11:53:24.152Z,103708.06
2023-02-11T11:55:59.921Z,103699.13
2023-02-11T11:58:30.111Z,103698.16
2023-02-11T12:01:30.507Z,103700.75
2023-02-11T12:04:21.222Z,103701.59
2023-02-11T12:06:57.213Z,103690.00
2023-02-11T12:09:33.383Z,103694.41
2023-02-11T12:12:26.607Z,103691.75
2023-02-11T12:14:53.113Z,103680.16
2023-02-11T12:17:37.102Z,103685.47
2023-02-11T12:20:27.332Z,103693.44
2023-02-11T12:23:04.227Z,103694.34
2023-02-11T12:25:55.052Z,103694.38
2023-02-11T12:28:40.231Z,103686.44
2023-02-11T12:31:44.196Z,103684.78
2023-02-11T12:34:38.256Z,103685.75
2023-02-11T12:37:26.176Z,103686.72
2023-02-11T12:40:11.044Z,103693.00
2023-02-11T12:43:01.502Z,103695.72
2023-02-11T12:45:42.782Z,103701.13
2023-02-11T12:48:25.965Z,103696.72
2023-02-11T12:51:09.885Z,103688.78
2023-02-11T12:53:49.310Z,103692.34
2023-02-11T12:56:26.897Z,103688.72
2023-02-11T12:58:58.827Z,103691.41
2023-02-11T13:01:33.737Z,103686.94
2023-02-11T13:04:09.128Z,103682.50
2023-02-11T13:06:42.164Z,103680.75
2023-02-11T13:09:19.004Z,103682.47
2023-02-11T13:11:51.849Z,103684.31
2023-02-11T13:14:35.307Z,103689.66
2023-02-11T13:17:13.081Z,103689.66
2023-02-11T13:19:50.409Z,103694.16
2023-02-11T13:22:24.203Z,103679.94
2023-02-11T13:25:07.090Z,103686.19
2023-02-11T13:27:46.182Z,103683.50
2023-02-11T13:30:27.320Z,103685.28
2023-02-11T13:32:53.878Z,103673.72
2023-02-11T13:35:37.402Z,103679.06
2023-02-11T13:38:25.518Z,103671.03
2023-02-11T13:41:02.640Z,103674.59
2023-02-11T13:43:33.053Z,103670.16
2023-02-11T13:46:11.698Z,103669.22
2023-02-11T13:48:47.692Z,103673.66
2023-02-11T13:51:18.400Z,103672.75
2023-02-11T13:53:50.427Z,103680.78
2023-02-11T13:56:30.726Z,103674.50
2023-02-11T13:59:01.970Z,103681.56
2023-02-11T14:02:07.139Z,103680.69
2023-02-11T14:04:52.524Z,103678.81
2023-02-11T14:08:11.882Z,103684.16
2023-02-11T14:10:40.942Z,103687.63
2023-02-11T14:13:29.718Z,103689.38
2023-02-11T14:16:31.665Z,103685.78
2023-02-11T14:19:02.474Z,103683.97
2023-02-11T14:21:29.669Z,103686.56
2023-02-11T14:24:02.101Z,103686.53
2023-02-11T14:26:43.880Z,103687.44
2023-02-11T14:29:33.403Z,103687.41
2023-02-11T14:32:27.017Z,103689.22
2023-02-11T14:35:15.532Z,103688.28
2023-02-11T14:38:07.488Z,103686.47
2023-02-11T14:40:55.106Z,103690.91
2023-02-11T14:43:31.854Z,103689.16
2023-02-11T14:46:01.308Z,103691.84
2023-02-11T14:48:32.192Z,103691.88
2023-02-11T14:51:06.328Z,103692.78
2023-02-11T14:53:35.068Z,103692.75
2023-02-11T14:56:01.666Z,103691.00
2023-02-11T14:58:32.895Z,103688.31
2023-02-11T15:01:06.428Z,103692.72
2023-02-11T15:03:37.752Z,103689.13
2023-02-11T15:06:07.394Z,103698.88
2023-02-11T15:08:38.289Z,103694.41
2023-02-11T15:11:12.687Z,103695.31
2023-02-11T15:13:39.521Z,103700.59
2023-02-11T15:16:11.002Z,103699.66
2023-02-11T15:18:43.701Z,103703.16
2023-02-11T15:21:10.960Z,103710.19
2023-02-11T15:23:39.006Z,103709.22
2023-02-11T15:26:13.954Z,103711.91
2023-02-11T15:28:52.127Z,103722.50
2023-02-11T15:31:23.298Z,103711.78
2023-02-11T15:33:51.554Z,103715.28
2023-02-11T15:36:23.694Z,103725.91
2023-02-11T15:39:16.111Z,103724.97
2023-02-11T15:41:44.378Z,103722.16
2023-02-11T15:44:32.055Z,103723.88
2023-02-11T15:47:00.099Z,103722.00
2023-02-11T15:49:27.331Z,103723.69
2023-02-11T15:51:57.098Z,103728.91
2023-02-11T15:54:29.395Z,103727.06
2023-02-11T15:57:04.242Z,103728.81
2023-02-11T15:59:41.090Z,103732.25
2023-02-11T16:02:30.380Z,103735.69
2023-02-11T16:05:26.110Z,103732.97
2023-02-11T16:07:52.996Z,103732.00
2023-02-11T16:10:29.847Z,103732.84
2023-02-11T16:13:08.451Z,103740.78
2023-02-11T16:15:35.003Z,103741.59
2023-02-11T16:18:13.376Z,103736.22
2023-02-11T16:20:40.340Z,103744.13
2023-02-11T16:23:08.028Z,103747.63
2023-02-11T16:25:35.721Z,103746.66
2023-02-11T16:28:02.567Z,103751.81
2023-02-11T16:30:32.750Z,103751.72
2023-02-11T16:32:59.250Z,103760.50
2023-02-11T16:35:26.026Z,103755.94
2023-02-11T16:37:52.662Z,103754.16
2023-02-11T16:40:19.258Z,103763.00
2023-02-11T16:42:45.803Z,103763.81
2023-02-11T16:45:12.442Z,103764.66
2023-02-11T16:47:42.988Z,103775.25
2023-02-11T16:50:19.011Z,103771.66
2023-02-11T16:52:46.297Z,103770.69
2023-02-11T16:55:13.180Z,103781.31
2023-02-11T16:57:40.199Z,103776.84
2023-02-11T17:00:08.070Z,103781.25
2023-02-11T17:02:37.132Z,103791.88
2023-02-11T17:05:07.437Z,103794.56
2023-02-11T17:07:34.384Z,103806.06
2023-02-11T17:10:01.256Z,103803.41
2023-02-11T17:12:28.011Z,103805.16
2023-02-11T17:14:54.838Z,103806.94
2023-02-11T17:17:23.667Z,103811.31
2023-02-11T17:19:51.058Z,103815.69
2023-02-11T17:22:18.661Z,103806.72
2023-02-11T17:24:45.281Z,103808.50
2023-02-11T17:27:12.170Z,103808.44
2023-02-11T17:29:38.681Z,103810.16
2023-02-11T17:32:05.399Z,103814.59
2023-02-11T17:34:32.444Z,103806.53
2023-02-11T17:37:00.242Z,103806.50
2023-02-11T17:39:27.519Z,103814.47
2023-02-11T17:41:54.055Z,103817.06
2023-02-11T17:44:20.625Z,103825.81
2023-02-11T17:46:47.235Z,103818.66
2023-02-11T17:49:13.825Z,103822.22
2023-02-11T17:51:40.691Z,103827.50
2023-02-11T17:54:14.255Z,103823.00
2023-02-11T17:56:42.205Z,103831.88
2023-02-11T17:59:10.709Z,103833.63
2023-02-11T18:01:39.124Z,103827.34
2023-02-11T18:04:06.878Z,103826.38
2023-02-11T18:06:34.277Z,103829.88
2023-02-11T18:09:02.419Z,103830.66
2023-02-11T18:11:30.963Z,103834.25
2023-02-11T18:14:02.149Z,103835.97
2023-02-11T18:16:30.109Z,103835.94
2023-02-11T18:18:58.310Z,103834.09
2023-02-11T18:21:25.858Z,103847.31
2023-02-11T18:23:52.492Z,103844.56
2023-02-11T18:26:21.585Z,103843.72
2023-02-11T18:28:48.350Z,103849.88
2023-02-11T18:31:14.984Z,103849.84
2023-02-11T18:33:42.561Z,103855.09
2023-02-11T18:36:13.039Z,103855.06
2023-02-11T18:38:40.897Z,103860.31
2023-02-11T18:41:07.737Z,103855.91
2023-02-11T18:43:35.378Z,103861.22
2023-02-11T18:46:06.885Z,103862.97
2023-02-11T18:48:33.540Z,103863.84
2023-02-11T18:51:00.120Z,103867.34
2023-02-11T18:53:26.736Z,103867.34
2023-02-11T18:55:53.888Z,103865.59
2023-02-11T18:58:21.327Z,103863.75
2023-02-11T19:00:51.975Z,103860.22
2023-02-11T19:03:18.589Z,103866.38
2023-02-11T19:05:48.140Z,103866.41
2023-02-11T19:08:15.229Z,103875.22
2023-02-11T19:10:44.404Z,103874.38
2023-02-11T19:13:10.985Z,103875.22
2023-02-11T19:15:45.310Z,103871.72
2023-02-11T19:18:13.178Z,103869.94
2023-02-11T19:20:42.049Z,103870.81
2023-02-11T19:23:08.651Z,103873.38
2023-02-11T19:25:35.420Z,103876.97
2023-02-11T19:28:03.256Z,103882.34
2023-02-11T19:30:30.026Z,103888.50
2023-02-11T19:32:57.618Z,103889.41
2023-02-11T19:35:25.342Z,103892.94
2023-02-11T19:37:51.981Z,103894.69
2023-02-11T19:40:21.110Z,103898.22
2023-02-11T19:42:47.906Z,103900.91
2023-02-11T19:45:14.488Z,103907.97
2023-02-11T19:47:41.058Z,103911.53
2023-02-11T19:50:08.612Z,103898.25
2023-02-11T19:52:38.213Z,103904.47
2023-02-11T19:55:05.064Z,103900.00
2023-02-11T19:57:31.638Z,103907.09
2023-02-11T19:59:58.252Z,103908.88
2023-02-11T20:02:24.844Z,103915.97
2023-02-11T20:04:51.510Z,103914.28
2023-02-11T20:07:18.098Z,103928.34
2023-02-11T20:09:44.672Z,103919.50
2023-02-11T20:12:12.071Z,103929.19
2023-02-11T20:14:38.783Z,103924.78
2023-02-11T20:17:05.418Z,103928.19
2023-02-11T20:19:32.068Z,103927.41
2023-02-11T20:21:58.642Z,103928.25
2023-02-11T20:24:25.730Z,103932.66
2023-02-11T20:26:55.627Z,103933.53
2023-02-11T20:29:23.373Z,103934.38
2023-02-11T20:31:50.608Z,103937.00
2023-02-11T20:34:18.129Z,103940.50
2023-02-11T20:36:51.603Z,103947.66
2023-02-11T20:39:19.217Z,103956.47
2023-02-11T20:41:46.376Z,103958.22
2023-02-11T20:44:13.511Z,103949.31
2023-02-11T20:46:43.720Z,103959.06
2023-02-11T20:49:12.865Z,103952.91
2023-02-11T20:51:39.911Z,103946.75
2023-02-11T20:54:07.422Z,103952.91
2023-02-11T20:56:36.808Z,103958.19
2023-02-11T20:59:04.322Z,103961.69
2023-02-11T21:01:37.020Z,103961.72
2023-02-11T21:04:19.433Z,103969.75
2023-02-11T21:06:49.251Z,103969.69
2023-02-11T21:09:25.022Z,103971.50
2023-02-11T21:11:53.698Z,103973.28
2023-02-11T21:14:22.498Z,103970.69
2023-02-11T21:16:49.617Z,103975.94
2023-02-11T21:19:16.770Z,103979.41
2023-02-11T21:21:43.705Z,103977.59
2023-02-11T21:24:11.305Z,103980.25
2023-02-11T21:26:39.119Z,103989.13
2023-02-11T21:29:07.504Z,103979.38
2023-02-11T21:31:35.202Z,103991.72
2023-02-11T21:34:01.997Z,103999.75
2023-02-11T21:36:29.977Z,103992.63
2023-02-11T21:38:56.833Z,103996.19
2023-02-11T21:41:24.814Z,103995.28
2023-02-11T21:43:52.299Z,103996.19
2023-02-11T21:46:20.483Z,104000.59
2023-02-11T21:48:47.783Z,104002.34
2023-02-11T21:51:20.838Z,104004.09
2023-02-11T21:53:47.853Z,104005.84
2023-02-11T21:56:17.309Z,104005.81
2023-02-11T21:58:45.624Z,104003.09
2023-02-11T22:01:21.576Z,104006.69
2023-02-11T22:03:48.220Z,104004.00
2023-02-11T22:06:18.795Z,104004.81
2023-02-11T22:08:45.375Z,104021.69
2023-02-11T22:11:13.566Z,104019.03
2023-02-11T22:13:41.100Z,104014.63
2023-02-11T22:16:11.084Z,104012.78
2023-02-11T22:18:38.221Z,104020.72
2023-02-11T22:21:08.630Z,104023.38
2023-02-11T22:23:36.089Z,104031.28
2023-02-11T22:26:28.610Z,104021.63
2023-02-11T22:28:55.990Z,104029.50
2023-02-11T22:31:28.804Z,104028.63
2023-02-11T22:33:56.516Z,104024.22
2023-02-11T22:36:26.262Z,104030.50
2023-02-11T22:38:53.553Z,104024.19
2023-02-11T22:41:21.378Z,104026.84
2023-02-11T22:43:48.347Z,104031.25
2023-02-11T22:46:18.187Z,104028.47
2023-02-11T22:48:45.812Z,104024.09
2023-02-11T22:51:19.642Z,104028.59
2023-02-11T22:54:01.353Z,104034.66
2023-02-11T22:56:30.195Z,104027.50
2023-02-11T22:59:01.378Z,104028.50
2023-02-11T23:01:29.450Z,104028.31
2023-02-11T23:03:56.112Z,104031.91
2023-02-11T23:06:22.740Z,104030.16
2023-02-11T23:08:49.316Z,104034.56
2023-02-11T23:11:19.573Z,104031.97
2023-02-11T23:13:48.122Z,104029.25
2023-02-11T23:16:19.144Z,104023.06
2023-02-11T23:18:47.386Z,104031.06
2023-02-11T23:21:24.838Z,104034.56
2023-02-11T23:24:01.773Z,104029.25
2023-02-11T23:26:28.597Z,104029.25
2023-02-11T23:28:57.222Z,104038.06
2023-02-11T23:31:26.792Z,104036.22
2023-02-11T23:33:53.885Z,104042.47
2023-02-11T23:36:22.182Z,104034.47
2023-02-11T23:38:48.906Z,104034.47
2023-02-11T23:41:16.574Z,104034.41
2023-02-11T23:43:43.116Z,104039.78
2023-02-11T23:46:10.245Z,104045.03
2023-02-11T23:48:37.681Z,104035.31
2023-02-11T23:51:04.640Z,104038.81
2023-02-11T23:53:31.209Z,104038.78
2023-02-11T23:55:57.811Z,104037.94
2023-02-11T23:58:24.554Z,104033.53
